EDW22 LSZH-MDPP
Flight info
| Callsign | EDW22 |
|---|---|
| Flight time | N/A |
| Altitude | 34000 |
| Route | VEBIT T10 TORPA DCT REKLA DCT RLP DCT ROTSI DCT AMODO DCT COHPA UM729 RESMI UN491 EKRAS UN585 FEJAC DCT REGHI/M085F340 DCT ETIKI DCT 47N015W 46N020W 45N030W 40N040W 35N050W DCT SIFEN M596 WATRS/N0501F340 M596 POKEG POKEG3S |
| Aircraft | A359/H-SABDE2E3GHIJ2J3J4J5M1P2RWXYZ/LB1D1 |
Departure
| Time | 2026-05-05 13:42 |
|---|---|
| Airport | Zürich Airport (LSZH) |
Arrival
| Time | N/A |
|---|---|
| Airport | Gregorio Luperon International Airport (MDPP) |
| Time | Latitude | Longitude | Altitude | Speed | Heading |
|---|---|---|---|---|---|
| 2026-05-05 13:01 | 47.46046 | 8.55528 | 1392 ft | 0 kts | 6° |
| 2026-05-05 13:30 | 47.46033 | 8.55526 | 1393 ft | 2 kts | 6° |
| 2026-05-05 13:30 | 47.46018 | 8.55523 | 1393 ft | 2 kts | 14° |
| 2026-05-05 13:30 | 47.46005 | 8.55515 | 1392 ft | 2 kts | 35° |
| 2026-05-05 13:31 | 47.45993 | 8.55501 | 1392 ft | 2 kts | 50° |
| 2026-05-05 13:31 | 47.45985 | 8.55482 | 1392 ft | 2 kts | 66° |
| 2026-05-05 13:31 | 47.45981 | 8.55462 | 1392 ft | 2 kts | 82° |
| 2026-05-05 13:31 | 47.45980 | 8.55447 | 1392 ft | 0 kts | 94° |
| 2026-05-05 13:32 | 47.45980 | 8.55444 | 1392 ft | 0 kts | 94° |
| 2026-05-05 13:34 | 47.45980 | 8.55449 | 1392 ft | 0 kts | 94° |
| 2026-05-05 13:35 | 47.45980 | 8.55458 | 1392 ft | 1 kts | 94° |
| 2026-05-05 13:35 | 47.45979 | 8.55469 | 1392 ft | 0 kts | 94° |
| 2026-05-05 13:35 | 47.45976 | 8.55503 | 1393 ft | 7 kts | 102° |
| 2026-05-05 13:35 | 47.45956 | 8.55547 | 1394 ft | 5 kts | 146° |
| 2026-05-05 13:36 | 47.45903 | 8.55567 | 1395 ft | 9 kts | 158° |
| 2026-05-05 13:36 | 47.45870 | 8.55649 | 1397 ft | 8 kts | 101° |
| 2026-05-05 13:36 | 47.45862 | 8.55718 | 1399 ft | 8 kts | 99° |
| 2026-05-05 13:36 | 47.45851 | 8.55874 | 1402 ft | 15 kts | 95° |
| 2026-05-05 13:37 | 47.45842 | 8.56021 | 1405 ft | 13 kts | 95° |
| 2026-05-05 13:37 | 47.45833 | 8.56170 | 1405 ft | 18 kts | 96° |
| 2026-05-05 13:37 | 47.45818 | 8.56368 | 1409 ft | 18 kts | 96° |
| 2026-05-05 13:37 | 47.45805 | 8.56545 | 1412 ft | 16 kts | 97° |
| 2026-05-05 13:38 | 47.45793 | 8.56701 | 1414 ft | 14 kts | 97° |
| 2026-05-05 13:38 | 47.45782 | 8.56834 | 1416 ft | 12 kts | 97° |
| 2026-05-05 13:38 | 47.45775 | 8.56947 | 1418 ft | 9 kts | 98° |
| 2026-05-05 13:38 | 47.45749 | 8.57010 | 1419 ft | 5 kts | 144° |
| 2026-05-05 13:39 | 47.45747 | 8.57013 | 1419 ft | 0 kts | 148° |
| 2026-05-05 13:40 | 47.45738 | 8.57020 | 1420 ft | 3 kts | 153° |
| 2026-05-05 13:40 | 47.45702 | 8.57030 | 1421 ft | 6 kts | 185° |
| 2026-05-05 13:40 | 47.45671 | 8.56996 | 1421 ft | 5 kts | 249° |
| 2026-05-05 13:41 | 47.45668 | 8.56910 | 1420 ft | 17 kts | 272° |
| 2026-05-05 13:41 | 47.45699 | 8.56496 | 1414 ft | 67 kts | 274° |
| 2026-05-05 13:41 | 47.45764 | 8.55533 | 1397 ft | 121 kts | 276° |
| 2026-05-05 13:41 | 47.45866 | 8.54068 | 1394 ft | 163 kts | 277° |
| 2026-05-05 13:42 | 47.45984 | 8.52453 | 2006 ft | 147 kts | 274° |
| 2026-05-05 13:42 | 47.46047 | 8.51017 | 2451 ft | 144 kts | 275° |
| 2026-05-05 13:42 | 47.46159 | 8.49490 | 2710 ft | 155 kts | 276° |
| 2026-05-05 13:42 | 47.46196 | 8.47876 | 3015 ft | 162 kts | 255° |
| 2026-05-05 13:43 | 47.45618 | 8.46425 | 3316 ft | 170 kts | 222° |
| 2026-05-05 13:43 | 47.44671 | 8.45321 | 3605 ft | 181 kts | 223° |
| 2026-05-05 13:43 | 47.43837 | 8.43859 | 3890 ft | 193 kts | 232° |
| 2026-05-05 13:43 | 47.42961 | 8.42278 | 4160 ft | 205 kts | 231° |
| 2026-05-05 13:44 | 47.42040 | 8.40593 | 4410 ft | 217 kts | 232° |
| 2026-05-05 13:44 | 47.41090 | 8.38796 | 4650 ft | 231 kts | 233° |
| 2026-05-05 13:44 | 47.40083 | 8.36850 | 4950 ft | 245 kts | 233° |
| 2026-05-05 13:44 | 47.39026 | 8.34786 | 5263 ft | 260 kts | 233° |
| 2026-05-05 13:45 | 47.38004 | 8.32521 | 5743 ft | 267 kts | 240° |
| 2026-05-05 13:45 | 47.37143 | 8.30101 | 6350 ft | 270 kts | 245° |
| 2026-05-05 13:45 | 47.36377 | 8.27577 | 6974 ft | 272 kts | 244° |
| 2026-05-05 13:45 | 47.35538 | 8.25107 | 7590 ft | 274 kts | 242° |
| 2026-05-05 13:46 | 47.34671 | 8.22614 | 8212 ft | 276 kts | 241° |
| 2026-05-05 13:46 | 47.33785 | 8.20094 | 8804 ft | 279 kts | 241° |
| 2026-05-05 13:46 | 47.32894 | 8.17576 | 9386 ft | 282 kts | 240° |
| 2026-05-05 13:46 | 47.31987 | 8.15028 | 9972 ft | 284 kts | 240° |
| 2026-05-05 13:47 | 47.31054 | 8.12412 | 10428 ft | 293 kts | 240° |
| 2026-05-05 13:47 | 47.30093 | 8.09716 | 10712 ft | 306 kts | 241° |
| 2026-05-05 13:47 | 47.29079 | 8.06869 | 10976 ft | 320 kts | 241° |
| 2026-05-05 13:47 | 47.28038 | 8.03922 | 11218 ft | 334 kts | 244° |
| 2026-05-05 13:48 | 47.27293 | 8.00592 | 11511 ft | 349 kts | 258° |
| 2026-05-05 13:48 | 47.27161 | 7.96972 | 11772 ft | 364 kts | 273° |
| 2026-05-05 13:48 | 47.27481 | 7.93253 | 12032 ft | 376 kts | 276° |
| 2026-05-05 13:48 | 47.27877 | 7.89372 | 12308 ft | 388 kts | 277° |
| 2026-05-05 13:49 | 47.28279 | 7.85461 | 12731 ft | 393 kts | 276° |
| 2026-05-05 13:49 | 47.28677 | 7.81478 | 13275 ft | 396 kts | 276° |
| 2026-05-05 13:49 | 47.29067 | 7.77463 | 13802 ft | 398 kts | 276° |
| 2026-05-05 13:49 | 47.29453 | 7.73398 | 14313 ft | 401 kts | 275° |
| 2026-05-05 13:50 | 47.29834 | 7.69356 | 14814 ft | 403 kts | 275° |
| 2026-05-05 13:50 | 47.30282 | 7.65308 | 15291 ft | 407 kts | 278° |
| 2026-05-05 13:50 | 47.30898 | 7.61203 | 15756 ft | 410 kts | 282° |
| 2026-05-05 13:50 | 47.31677 | 7.57169 | 16196 ft | 414 kts | 284° |
| 2026-05-05 13:51 | 47.32551 | 7.53125 | 16645 ft | 417 kts | 285° |
| 2026-05-05 13:51 | 47.33436 | 7.49087 | 17067 ft | 420 kts | 285° |
| 2026-05-05 13:51 | 47.34335 | 7.44979 | 17518 ft | 423 kts | 285° |
| 2026-05-05 13:51 | 47.35232 | 7.40866 | 17935 ft | 425 kts | 285° |
| 2026-05-05 13:52 | 47.36129 | 7.36731 | 18314 ft | 428 kts | 285° |
| 2026-05-05 13:52 | 47.37038 | 7.32522 | 18726 ft | 431 kts | 284° |
| 2026-05-05 13:52 | 47.37946 | 7.28296 | 19115 ft | 434 kts | 284° |
| 2026-05-05 13:52 | 47.38850 | 7.24078 | 19505 ft | 437 kts | 284° |
| 2026-05-05 13:53 | 47.39773 | 7.19769 | 19867 ft | 440 kts | 284° |
| 2026-05-05 13:53 | 47.40636 | 7.15474 | 20238 ft | 442 kts | 282° |
| 2026-05-05 13:53 | 47.41357 | 7.11050 | 20586 ft | 444 kts | 279° |
| 2026-05-05 13:53 | 47.42020 | 7.06589 | 20939 ft | 447 kts | 279° |
| 2026-05-05 13:54 | 47.42673 | 7.02116 | 21286 ft | 450 kts | 279° |
| 2026-05-05 13:54 | 47.43330 | 6.97602 | 21604 ft | 453 kts | 279° |
| 2026-05-05 13:54 | 47.43994 | 6.93034 | 21930 ft | 455 kts | 279° |
| 2026-05-05 13:54 | 47.44656 | 6.88485 | 22267 ft | 458 kts | 279° |
| 2026-05-05 13:55 | 47.45327 | 6.83872 | 22580 ft | 461 kts | 279° |
| 2026-05-05 13:55 | 47.45992 | 6.79294 | 22918 ft | 463 kts | 279° |
| 2026-05-05 13:55 | 47.46670 | 6.74600 | 23243 ft | 465 kts | 279° |
| 2026-05-05 13:55 | 47.47337 | 6.69962 | 23537 ft | 468 kts | 278° |
| 2026-05-05 13:56 | 47.47912 | 6.65237 | 23816 ft | 469 kts | 276° |
| 2026-05-05 13:56 | 47.48320 | 6.60480 | 24146 ft | 470 kts | 274° |
| 2026-05-05 13:56 | 47.48676 | 6.55634 | 24456 ft | 472 kts | 273° |
| 2026-05-05 13:56 | 47.49015 | 6.50830 | 24718 ft | 474 kts | 273° |
| 2026-05-05 13:57 | 47.49353 | 6.46025 | 24986 ft | 476 kts | 274° |
| 2026-05-05 13:57 | 47.49696 | 6.41144 | 25275 ft | 478 kts | 273° |
| 2026-05-05 13:57 | 47.50038 | 6.36289 | 25530 ft | 480 kts | 273° |
| 2026-05-05 13:57 | 47.50382 | 6.31378 | 25802 ft | 481 kts | 273° |
| 2026-05-05 13:58 | 47.50729 | 6.26422 | 26067 ft | 482 kts | 273° |
| 2026-05-05 13:58 | 47.51071 | 6.21502 | 26288 ft | 484 kts | 273° |
| 2026-05-05 13:58 | 47.51414 | 6.16536 | 26497 ft | 486 kts | 273° |
| 2026-05-05 13:58 | 47.51753 | 6.11588 | 26703 ft | 488 kts | 273° |
| 2026-05-05 13:59 | 47.52435 | 6.01579 | 27112 ft | 491 kts | 273° |
| 2026-05-05 13:59 | 47.52775 | 5.96511 | 27331 ft | 492 kts | 273° |
| 2026-05-05 14:00 | 47.54095 | 5.86597 | 27737 ft | 501 kts | 290° |
| 2026-05-05 14:00 | 47.55676 | 5.82010 | 28035 ft | 503 kts | 301° |
| 2026-05-05 14:00 | 47.57811 | 5.77948 | 28337 ft | 504 kts | 310° |
| 2026-05-05 14:00 | 47.60173 | 5.74123 | 28647 ft | 504 kts | 311° |
| 2026-05-05 14:01 | 47.62556 | 5.70362 | 28857 ft | 505 kts | 312° |
| 2026-05-05 14:01 | 47.64962 | 5.66561 | 29056 ft | 506 kts | 312° |
| 2026-05-05 14:01 | 47.67330 | 5.62792 | 29283 ft | 506 kts | 311° |
| 2026-05-05 14:01 | 47.69719 | 5.58959 | 29541 ft | 506 kts | 311° |
| 2026-05-05 14:02 | 47.72100 | 5.55117 | 29808 ft | 505 kts | 311° |
| 2026-05-05 14:02 | 47.74456 | 5.51298 | 30040 ft | 505 kts | 311° |
| 2026-05-05 14:02 | 47.76814 | 5.47468 | 30251 ft | 506 kts | 311° |
| 2026-05-05 14:02 | 47.79190 | 5.43603 | 30475 ft | 506 kts | 312° |
| 2026-05-05 14:03 | 47.81574 | 5.39716 | 30717 ft | 505 kts | 312° |
| 2026-05-05 14:03 | 47.83901 | 5.35920 | 30919 ft | 505 kts | 312° |
| 2026-05-05 14:03 | 47.86265 | 5.32055 | 31144 ft | 504 kts | 311° |
| 2026-05-05 14:03 | 47.88612 | 5.28196 | 31353 ft | 503 kts | 311° |
| 2026-05-05 14:04 | 47.90958 | 5.24340 | 31538 ft | 503 kts | 311° |
| 2026-05-05 14:04 | 47.93300 | 5.20484 | 31722 ft | 502 kts | 311° |
| 2026-05-05 14:04 | 47.95621 | 5.16655 | 31916 ft | 501 kts | 311° |
| 2026-05-05 14:04 | 47.97948 | 5.12817 | 32083 ft | 501 kts | 311° |
| 2026-05-05 14:05 | 48.00278 | 5.08971 | 32233 ft | 501 kts | 311° |
| 2026-05-05 14:05 | 48.02632 | 5.05082 | 32381 ft | 501 kts | 311° |
| 2026-05-05 14:05 | 48.04943 | 5.01261 | 32507 ft | 502 kts | 311° |
| 2026-05-05 14:05 | 48.07267 | 4.97411 | 32622 ft | 502 kts | 311° |
| 2026-05-05 14:06 | 48.09623 | 4.93505 | 32747 ft | 503 kts | 311° |
| 2026-05-05 14:06 | 48.11960 | 4.89637 | 32854 ft | 503 kts | 311° |
| 2026-05-05 14:06 | 48.14296 | 4.85780 | 32967 ft | 504 kts | 311° |
| 2026-05-05 14:06 | 48.16634 | 4.81906 | 33077 ft | 504 kts | 311° |
| 2026-05-05 14:07 | 48.18959 | 4.78031 | 33192 ft | 504 kts | 311° |
| 2026-05-05 14:07 | 48.21264 | 4.74076 | 33324 ft | 503 kts | 308° |
| 2026-05-05 14:07 | 48.25128 | 4.65430 | 33530 ft | 501 kts | 297° |
| 2026-05-05 14:08 | 48.27850 | 4.55857 | 33684 ft | 500 kts | 285° |
| 2026-05-05 14:08 | 48.29353 | 4.45725 | 33777 ft | 498 kts | 276° |
| 2026-05-05 14:09 | 48.30275 | 4.35464 | 33788 ft | 498 kts | 276° |
| 2026-05-05 14:09 | 48.31170 | 4.25194 | 33788 ft | 497 kts | 275° |
| 2026-05-05 14:10 | 48.32074 | 4.14963 | 33792 ft | 498 kts | 275° |
| 2026-05-05 14:10 | 48.32985 | 4.04703 | 33786 ft | 499 kts | 275° |
| 2026-05-05 14:11 | 48.33894 | 3.94384 | 33789 ft | 499 kts | 275° |
| 2026-05-05 14:11 | 48.34790 | 3.84120 | 33795 ft | 499 kts | 275° |
| 2026-05-05 14:12 | 48.35679 | 3.73832 | 33789 ft | 498 kts | 275° |
| 2026-05-05 14:12 | 48.36560 | 3.63518 | 33781 ft | 499 kts | 276° |
| 2026-05-05 14:13 | 48.37433 | 3.53205 | 33790 ft | 499 kts | 276° |
| 2026-05-05 14:13 | 48.38299 | 3.42858 | 33818 ft | 500 kts | 276° |
| 2026-05-05 14:14 | 48.39157 | 3.32496 | 33783 ft | 499 kts | 275° |
| 2026-05-05 14:14 | 48.39997 | 3.22210 | 33790 ft | 499 kts | 275° |
| 2026-05-05 14:15 | 48.40832 | 3.11894 | 33792 ft | 500 kts | 275° |
| 2026-05-05 14:15 | 48.41726 | 3.01548 | 33792 ft | 500 kts | 277° |
| 2026-05-05 14:16 | 48.43200 | 2.91321 | 33808 ft | 502 kts | 284° |
| 2026-05-05 14:16 | 48.45140 | 2.81244 | 33797 ft | 502 kts | 285° |
| 2026-05-05 14:17 | 48.47082 | 2.71172 | 33821 ft | 502 kts | 285° |
| 2026-05-05 14:17 | 48.49001 | 2.61091 | 33817 ft | 503 kts | 285° |
| 2026-05-05 14:18 | 48.50908 | 2.51008 | 33816 ft | 503 kts | 285° |
| 2026-05-05 14:18 | 48.52812 | 2.40883 | 33811 ft | 503 kts | 285° |
| 2026-05-05 14:19 | 48.54697 | 2.30806 | 33833 ft | 503 kts | 284° |
| 2026-05-05 14:19 | 48.56571 | 2.20648 | 33812 ft | 504 kts | 283° |
| 2026-05-05 14:20 | 48.58104 | 2.10425 | 33816 ft | 504 kts | 281° |
| 2026-05-05 14:20 | 48.59540 | 2.00091 | 33812 ft | 504 kts | 281° |
| 2026-05-05 14:21 | 48.60980 | 1.89713 | 33805 ft | 503 kts | 281° |
| 2026-05-05 14:21 | 48.62401 | 1.79462 | 33792 ft | 503 kts | 281° |
| 2026-05-05 14:22 | 48.63826 | 1.69110 | 33802 ft | 503 kts | 281° |
| 2026-05-05 14:22 | 48.65225 | 1.58837 | 33794 ft | 503 kts | 281° |
| 2026-05-05 14:23 | 48.66616 | 1.48499 | 33800 ft | 502 kts | 281° |
| 2026-05-05 14:23 | 48.68000 | 1.38168 | 33800 ft | 502 kts | 281° |
| 2026-05-05 14:24 | 48.69363 | 1.27883 | 33804 ft | 502 kts | 280° |
| 2026-05-05 14:24 | 48.70727 | 1.17514 | 33811 ft | 501 kts | 280° |
| 2026-05-05 14:25 | 48.72071 | 1.07263 | 33815 ft | 502 kts | 280° |
| 2026-05-05 14:25 | 48.73422 | 0.96910 | 33807 ft | 502 kts | 280° |
| 2026-05-05 14:26 | 48.74750 | 0.86626 | 33829 ft | 500 kts | 280° |
| 2026-05-05 14:26 | 48.76076 | 0.76321 | 33828 ft | 500 kts | 280° |
| 2026-05-05 14:27 | 48.77400 | 0.65985 | 33825 ft | 499 kts | 280° |
| 2026-05-05 14:27 | 48.78692 | 0.55713 | 33831 ft | 499 kts | 279° |
| 2026-05-05 14:28 | 48.79544 | 0.45322 | 33835 ft | 498 kts | 275° |
| 2026-05-05 14:28 | 48.80189 | 0.34928 | 33838 ft | 498 kts | 274° |
| 2026-05-05 14:29 | 48.80829 | 0.24466 | 33837 ft | 498 kts | 274° |
| 2026-05-05 14:29 | 48.81464 | 0.14066 | 33838 ft | 498 kts | 274° |
| 2026-05-05 14:30 | 48.82096 | 0.03606 | 33840 ft | 497 kts | 274° |
| 2026-05-05 14:30 | 48.82715 | -0.06746 | 33849 ft | 497 kts | 274° |
| 2026-05-05 14:31 | 48.83332 | -0.17225 | 33845 ft | 497 kts | 274° |
| 2026-05-05 14:31 | 48.83926 | -0.27583 | 33849 ft | 497 kts | 274° |
| 2026-05-05 14:32 | 48.84479 | -0.38009 | 33855 ft | 498 kts | 274° |
| 2026-05-05 14:32 | 48.85023 | -0.48428 | 33864 ft | 497 kts | 274° |
| 2026-05-05 14:33 | 48.85564 | -0.58861 | 33872 ft | 498 kts | 274° |
| 2026-05-05 14:33 | 48.86099 | -0.69299 | 33874 ft | 497 kts | 273° |
| 2026-05-05 14:34 | 48.86626 | -0.79785 | 33879 ft | 497 kts | 273° |
| 2026-05-05 14:34 | 48.87141 | -0.90209 | 33880 ft | 498 kts | 273° |
| 2026-05-05 14:35 | 48.87645 | -1.00623 | 33881 ft | 498 kts | 273° |
| 2026-05-05 14:35 | 48.88144 | -1.11083 | 33879 ft | 498 kts | 273° |
| 2026-05-05 14:36 | 48.88635 | -1.21556 | 33885 ft | 498 kts | 273° |
| 2026-05-05 14:36 | 48.89117 | -1.32008 | 33886 ft | 498 kts | 273° |
| 2026-05-05 14:37 | 48.89589 | -1.42444 | 33887 ft | 497 kts | 273° |
| 2026-05-05 14:37 | 48.90050 | -1.52939 | 33891 ft | 498 kts | 273° |
| 2026-05-05 14:38 | 48.90464 | -1.63383 | 33894 ft | 497 kts | 271° |
| 2026-05-05 14:38 | 48.90307 | -1.73777 | 33893 ft | 497 kts | 264° |
| 2026-05-05 14:39 | 48.89417 | -1.84125 | 33902 ft | 494 kts | 258° |
| 2026-05-05 14:39 | 48.87890 | -1.94248 | 33903 ft | 493 kts | 255° |
| 2026-05-05 14:40 | 48.86236 | -2.04355 | 33909 ft | 494 kts | 255° |